Northeast, Maryland
Current Conditions -  °F | °C
As of 12:51 AM on Sunday 26 Oct 2014 (Local Time) from KILG Reporting Station
Broken Clouds Broken Clouds  
Wind Chill: 58°   Ceiling: 7000
Heat Index: 58°   Visibility: 10mi
Dew Point: 46°   Wind: 8mph
Humidity: 65%   Direction: 240°WSW
Pressure: 29.63"   Gusts: NA
Location:  39.589°N, 75.9588°W
Report Text: KILG 260451Z 24007KT 10SM SCT055 BKN070 BKN085 14/08 A2963 RMK AO2 SLP035 T01440078 402110050
Loading
Personal Weather Stations






























Interactive Weather Map
Tropical Storm Tracking
New forecast layout! Learn more

10-Day Weather Forecast

Advertisements
Track Severe Weather on mobile